sensor_id;sensor_type;location;lat;lon;timestamp;P1;durP1;ratioP1;P2;durP2;ratioP2
10281;SDS011;5186;59.472;18.048;2023-03-31T00:01:37;1.07;;;0.97;;
10281;SDS011;5186;59.472;18.048;2023-03-31T00:04:08;1.77;;;1.10;;
10281;SDS011;5186;59.472;18.048;2023-03-31T00:06:37;1.27;;;1.17;;
10281;SDS011;5186;59.472;18.048;2023-03-31T00:09:06;1.67;;;1.10;;
10281;SDS011;5186;59.472;18.048;2023-03-31T00:11:33;1.60;;;1.03;;
10281;SDS011;5186;59.472;18.048;2023-03-31T00:13:59;1.83;;;1.17;;
10281;SDS011;5186;59.472;18.048;2023-03-31T00:16:25;1.53;;;1.20;;
10281;SDS011;5186;59.472;18.048;2023-03-31T00:18:51;1.20;;;1.10;;
10281;SDS011;5186;59.472;18.048;2023-03-31T00:21:18;1.40;;;1.27;;
10281;SDS011;5186;59.472;18.048;2023-03-31T00:24:01;1.97;;;1.20;;
10281;SDS011;5186;59.472;18.048;2023-03-31T00:26:28;1.30;;;0.87;;
10281;SDS011;5186;59.472;18.048;2023-03-31T00:28:55;1.60;;;1.10;;
10281;SDS011;5186;59.472;18.048;2023-03-31T00:31:21;1.40;;;1.20;;
10281;SDS011;5186;59.472;18.048;2023-03-31T00:33:47;2.07;;;1.10;;
10281;SDS011;5186;59.472;18.048;2023-03-31T00:36:13;1.73;;;1.30;;
10281;SDS011;5186;59.472;18.048;2023-03-31T00:38:44;1.30;;;1.17;;
10281;SDS011;5186;59.472;18.048;2023-03-31T00:41:13;1.20;;;1.10;;
10281;SDS011;5186;59.472;18.048;2023-03-31T00:43:40;2.10;;;1.07;;
10281;SDS011;5186;59.472;18.048;2023-03-31T00:48:39;0.93;;;0.93;;
10281;SDS011;5186;59.472;18.048;2023-03-31T00:51:09;1.10;;;1.00;;
10281;SDS011;5186;59.472;18.048;2023-03-31T00:53:35;1.40;;;0.90;;
10281;SDS011;5186;59.472;18.048;2023-03-31T00:56:04;1.67;;;1.20;;
10281;SDS011;5186;59.472;18.048;2023-03-31T00:58:33;1.10;;;1.00;;
10281;SDS011;5186;59.472;18.048;2023-03-31T01:00:59;1.27;;;1.10;;
10281;SDS011;5186;59.472;18.048;2023-03-31T01:03:27;1.07;;;0.97;;
10281;SDS011;5186;59.472;18.048;2023-03-31T01:05:58;2.13;;;1.00;;
10281;SDS011;5186;59.472;18.048;2023-03-31T01:08:30;1.00;;;0.97;;
10281;SDS011;5186;59.472;18.048;2023-03-31T01:10:57;1.23;;;1.13;;
10281;SDS011;5186;59.472;18.048;2023-03-31T01:13:27;1.20;;;1.10;;
10281;SDS011;5186;59.472;18.048;2023-03-31T01:15:55;2.50;;;1.13;;
10281;SDS011;5186;59.472;18.048;2023-03-31T01:18:21;2.10;;;1.10;;
10281;SDS011;5186;59.472;18.048;2023-03-31T01:29:04;1.23;;;1.00;;
10281;SDS011;5186;59.472;18.048;2023-03-31T01:42:56;1.50;;;1.20;;
10281;SDS011;5186;59.472;18.048;2023-03-31T01:45:35;1.20;;;1.10;;
10281;SDS011;5186;59.472;18.048;2023-03-31T01:48:30;1.77;;;1.10;;
10281;SDS011;5186;59.472;18.048;2023-03-31T01:51:01;0.97;;;0.90;;
10281;SDS011;5186;59.472;18.048;2023-03-31T01:56:05;2.60;;;1.10;;
10281;SDS011;5186;59.472;18.048;2023-03-31T01:58:47;0.77;;;0.77;;
10281;SDS011;5186;59.472;18.048;2023-03-31T02:04:27;0.87;;;0.87;;
10281;SDS011;5186;59.472;18.048;2023-03-31T02:06:53;2.20;;;1.10;;
10281;SDS011;5186;59.472;18.048;2023-03-31T02:09:24;1.87;;;0.93;;
10281;SDS011;5186;59.472;18.048;2023-03-31T02:11:54;1.00;;;1.00;;
10281;SDS011;5186;59.472;18.048;2023-03-31T02:14:24;1.20;;;1.00;;
10281;SDS011;5186;59.472;18.048;2023-03-31T02:16:54;0.93;;;0.93;;
10281;SDS011;5186;59.472;18.048;2023-03-31T02:19:22;1.50;;;1.20;;
10281;SDS011;5186;59.472;18.048;2023-03-31T02:21:51;1.63;;;1.00;;
10281;SDS011;5186;59.472;18.048;2023-03-31T02:24:19;1.13;;;1.00;;
10281;SDS011;5186;59.472;18.048;2023-03-31T02:27:05;1.50;;;1.20;;
10281;SDS011;5186;59.472;18.048;2023-03-31T02:29:45;1.27;;;1.10;;
10281;SDS011;5186;59.472;18.048;2023-03-31T02:34:47;1.30;;;1.20;;
10281;SDS011;5186;59.472;18.048;2023-03-31T02:37:13;1.03;;;1.00;;
10281;SDS011;5186;59.472;18.048;2023-03-31T02:39:40;2.07;;;1.00;;
10281;SDS011;5186;59.472;18.048;2023-03-31T02:42:08;1.63;;;1.20;;
10281;SDS011;5186;59.472;18.048;2023-03-31T02:44:34;1.23;;;1.13;;
10281;SDS011;5186;59.472;18.048;2023-03-31T02:47:05;1.50;;;1.03;;
10281;SDS011;5186;59.472;18.048;2023-03-31T02:49:32;1.37;;;1.20;;
10281;SDS011;5186;59.472;18.048;2023-03-31T03:07:38;1.50;;;1.00;;
10281;SDS011;5186;59.472;18.048;2023-03-31T03:16:05;1.00;;;1.00;;
10281;SDS011;5186;59.472;18.048;2023-03-31T03:18:43;3.87;;;1.33;;
10281;SDS011;5186;59.472;18.048;2023-03-31T03:21:16;1.13;;;1.03;;
10281;SDS011;5186;59.472;18.048;2023-03-31T03:23:42;1.20;;;0.90;;
10281;SDS011;5186;59.472;18.048;2023-03-31T03:26:07;2.93;;;1.10;;
10281;SDS011;5186;59.472;18.048;2023-03-31T03:28:33;1.20;;;1.10;;
10281;SDS011;5186;59.472;18.048;2023-03-31T03:30:58;1.50;;;0.97;;
10281;SDS011;5186;59.472;18.048;2023-03-31T03:33:24;1.83;;;1.23;;
10281;SDS011;5186;59.472;18.048;2023-03-31T03:35:50;3.17;;;1.20;;
10281;SDS011;5186;59.472;18.048;2023-03-31T03:38:16;2.00;;;1.30;;
10281;SDS011;5186;59.472;18.048;2023-03-31T03:40:41;1.70;;;1.10;;
10281;SDS011;5186;59.472;18.048;2023-03-31T03:43:07;1.73;;;1.20;;
10281;SDS011;5186;59.472;18.048;2023-03-31T03:45:32;1.17;;;1.07;;
10281;SDS011;5186;59.472;18.048;2023-03-31T03:47:58;2.80;;;1.27;;
10281;SDS011;5186;59.472;18.048;2023-03-31T03:50:23;1.50;;;1.40;;
10281;SDS011;5186;59.472;18.048;2023-03-31T03:52:49;1.77;;;1.00;;
10281;SDS011;5186;59.472;18.048;2023-03-31T03:55:15;1.20;;;1.10;;
10281;SDS011;5186;59.472;18.048;2023-03-31T03:57:41;3.03;;;1.23;;
10281;SDS011;5186;59.472;18.048;2023-03-31T04:00:07;1.87;;;1.40;;
10281;SDS011;5186;59.472;18.048;2023-03-31T04:02:37;1.27;;;1.13;;
10281;SDS011;5186;59.472;18.048;2023-03-31T04:05:03;1.90;;;1.17;;
10281;SDS011;5186;59.472;18.048;2023-03-31T04:07:29;2.00;;;1.17;;
10281;SDS011;5186;59.472;18.048;2023-03-31T04:09:55;1.60;;;1.30;;
10281;SDS011;5186;59.472;18.048;2023-03-31T04:12:20;1.83;;;1.30;;
10281;SDS011;5186;59.472;18.048;2023-03-31T04:14:46;1.67;;;1.33;;
10281;SDS011;5186;59.472;18.048;2023-03-31T04:17:12;1.20;;;1.10;;
10281;SDS011;5186;59.472;18.048;2023-03-31T04:19:39;2.30;;;1.07;;
10281;SDS011;5186;59.472;18.048;2023-03-31T04:22:06;3.90;;;1.40;;
10281;SDS011;5186;59.472;18.048;2023-03-31T04:24:35;1.50;;;0.93;;
10281;SDS011;5186;59.472;18.048;2023-03-31T04:27:03;1.23;;;1.13;;
10281;SDS011;5186;59.472;18.048;2023-03-31T04:29:31;4.30;;;1.53;;
10281;SDS011;5186;59.472;18.048;2023-03-31T04:31:58;1.63;;;1.30;;
10281;SDS011;5186;59.472;18.048;2023-03-31T04:34:24;2.17;;;1.07;;
10281;SDS011;5186;59.472;18.048;2023-03-31T04:36:58;1.20;;;1.03;;
10281;SDS011;5186;59.472;18.048;2023-03-31T04:39:26;1.17;;;1.07;;
10281;SDS011;5186;59.472;18.048;2023-03-31T04:41:54;1.90;;;1.30;;
10281;SDS011;5186;59.472;18.048;2023-03-31T04:44:24;0.93;;;0.93;;
10281;SDS011;5186;59.472;18.048;2023-03-31T04:46:50;2.37;;;1.17;;
10281;SDS011;5186;59.472;18.048;2023-03-31T04:49:15;1.63;;;1.20;;
10281;SDS011;5186;59.472;18.048;2023-03-31T04:51:41;1.63;;;1.37;;
10281;SDS011;5186;59.472;18.048;2023-03-31T04:54:06;1.80;;;1.37;;
10281;SDS011;5186;59.472;18.048;2023-03-31T04:56:32;1.50;;;1.10;;
10281;SDS011;5186;59.472;18.048;2023-03-31T04:58:58;1.60;;;1.10;;
10281;SDS011;5186;59.472;18.048;2023-03-31T05:01:23;2.20;;;1.33;;
10281;SDS011;5186;59.472;18.048;2023-03-31T05:03:49;1.90;;;1.30;;
10281;SDS011;5186;59.472;18.048;2023-03-31T05:06:14;1.53;;;1.10;;
10281;SDS011;5186;59.472;18.048;2023-03-31T05:08:41;1.50;;;1.40;;
10281;SDS011;5186;59.472;18.048;2023-03-31T05:11:08;2.87;;;1.40;;
10281;SDS011;5186;59.472;18.048;2023-03-31T05:13:33;2.57;;;1.70;;
10281;SDS011;5186;59.472;18.048;2023-03-31T05:16:04;2.27;;;1.53;;
10281;SDS011;5186;59.472;18.048;2023-03-31T05:18:35;4.53;;;1.30;;
10281;SDS011;5186;59.472;18.048;2023-03-31T05:21:17;1.90;;;1.30;;
10281;SDS011;5186;59.472;18.048;2023-03-31T05:23:45;4.23;;;1.40;;
10281;SDS011;5186;59.472;18.048;2023-03-31T05:26:11;2.23;;;1.40;;
10281;SDS011;5186;59.472;18.048;2023-03-31T05:28:37;3.27;;;1.30;;
10281;SDS011;5186;59.472;18.048;2023-03-31T05:31:03;1.93;;;1.00;;
10281;SDS011;5186;59.472;18.048;2023-03-31T05:33:30;1.50;;;1.00;;
10281;SDS011;5186;59.472;18.048;2023-03-31T05:35:56;5.17;;;1.40;;
10281;SDS011;5186;59.472;18.048;2023-03-31T05:38:24;2.30;;;1.40;;
10281;SDS011;5186;59.472;18.048;2023-03-31T05:40:53;2.17;;;1.20;;
10281;SDS011;5186;59.472;18.048;2023-03-31T05:43:19;1.20;;;1.10;;
10281;SDS011;5186;59.472;18.048;2023-03-31T05:45:45;2.13;;;1.27;;
10281;SDS011;5186;59.472;18.048;2023-03-31T05:48:10;2.33;;;1.20;;
10281;SDS011;5186;59.472;18.048;2023-03-31T05:50:36;1.40;;;1.20;;
10281;SDS011;5186;59.472;18.048;2023-03-31T05:53:02;2.90;;;1.30;;
10281;SDS011;5186;59.472;18.048;2023-03-31T05:55:27;1.30;;;1.20;;
10281;SDS011;5186;59.472;18.048;2023-03-31T05:57:53;1.70;;;1.23;;
10281;SDS011;5186;59.472;18.048;2023-03-31T06:00:18;1.60;;;1.33;;
10281;SDS011;5186;59.472;18.048;2023-03-31T06:02:44;2.50;;;1.30;;
10281;SDS011;5186;59.472;18.048;2023-03-31T06:05:10;3.27;;;1.40;;
10281;SDS011;5186;59.472;18.048;2023-03-31T06:07:36;1.50;;;0.90;;
10281;SDS011;5186;59.472;18.048;2023-03-31T06:10:02;2.37;;;1.30;;
10281;SDS011;5186;59.472;18.048;2023-03-31T06:12:27;3.33;;;1.10;;
10281;SDS011;5186;59.472;18.048;2023-03-31T06:14:53;2.20;;;1.30;;
10281;SDS011;5186;59.472;18.048;2023-03-31T06:17:19;1.00;;;0.90;;
10281;SDS011;5186;59.472;18.048;2023-03-31T06:19:44;2.70;;;1.40;;
10281;SDS011;5186;59.472;18.048;2023-03-31T06:22:10;1.47;;;1.10;;
10281;SDS011;5186;59.472;18.048;2023-03-31T06:24:36;3.33;;;1.30;;
10281;SDS011;5186;59.472;18.048;2023-03-31T06:27:01;1.30;;;1.20;;
10281;SDS011;5186;59.472;18.048;2023-03-31T06:29:27;1.77;;;1.17;;
10281;SDS011;5186;59.472;18.048;2023-03-31T06:31:53;2.30;;;1.10;;
10281;SDS011;5186;59.472;18.048;2023-03-31T06:34:19;2.57;;;1.00;;
10281;SDS011;5186;59.472;18.048;2023-03-31T06:36:45;1.77;;;1.17;;
10281;SDS011;5186;59.472;18.048;2023-03-31T06:39:11;3.30;;;1.30;;
10281;SDS011;5186;59.472;18.048;2023-03-31T06:41:36;2.37;;;1.13;;
10281;SDS011;5186;59.472;18.048;2023-03-31T06:44:03;1.70;;;1.20;;
10281;SDS011;5186;59.472;18.048;2023-03-31T06:46:28;2.30;;;1.20;;
10281;SDS011;5186;59.472;18.048;2023-03-31T06:48:54;1.10;;;1.00;;
10281;SDS011;5186;59.472;18.048;2023-03-31T06:51:20;1.17;;;1.07;;
10281;SDS011;5186;59.472;18.048;2023-03-31T06:53:45;1.10;;;1.00;;
10281;SDS011;5186;59.472;18.048;2023-03-31T06:56:11;2.03;;;1.20;;
10281;SDS011;5186;59.472;18.048;2023-03-31T06:58:37;1.43;;;1.20;;
10281;SDS011;5186;59.472;18.048;2023-03-31T07:01:03;2.13;;;1.20;;
10281;SDS011;5186;59.472;18.048;2023-03-31T07:03:29;1.57;;;1.30;;
10281;SDS011;5186;59.472;18.048;2023-03-31T07:05:56;4.97;;;1.47;;
10281;SDS011;5186;59.472;18.048;2023-03-31T07:08:22;3.07;;;1.33;;
10281;SDS011;5186;59.472;18.048;2023-03-31T07:10:48;1.20;;;1.10;;
10281;SDS011;5186;59.472;18.048;2023-03-31T07:13:18;1.30;;;1.10;;
10281;SDS011;5186;59.472;18.048;2023-03-31T07:15:45;2.30;;;1.87;;
10281;SDS011;5186;59.472;18.048;2023-03-31T07:18:12;0.97;;;0.90;;
10281;SDS011;5186;59.472;18.048;2023-03-31T07:20:39;1.43;;;0.97;;
10281;SDS011;5186;59.472;18.048;2023-03-31T07:23:06;1.17;;;1.00;;
10281;SDS011;5186;59.472;18.048;2023-03-31T07:25:32;0.90;;;0.90;;
10281;SDS011;5186;59.472;18.048;2023-03-31T07:27:58;1.43;;;0.87;;
10281;SDS011;5186;59.472;18.048;2023-03-31T07:30:24;1.40;;;1.30;;
10281;SDS011;5186;59.472;18.048;2023-03-31T07:32:50;2.67;;;1.23;;
10281;SDS011;5186;59.472;18.048;2023-03-31T07:35:17;2.00;;;1.10;;
10281;SDS011;5186;59.472;18.048;2023-03-31T07:37:44;1.57;;;1.10;;
10281;SDS011;5186;59.472;18.048;2023-03-31T07:40:12;1.83;;;1.20;;
10281;SDS011;5186;59.472;18.048;2023-03-31T07:42:43;3.43;;;1.30;;
10281;SDS011;5186;59.472;18.048;2023-03-31T07:45:11;1.67;;;1.00;;
10281;SDS011;5186;59.472;18.048;2023-03-31T07:47:36;3.73;;;1.50;;
10281;SDS011;5186;59.472;18.048;2023-03-31T07:50:04;1.10;;;1.00;;
10281;SDS011;5186;59.472;18.048;2023-03-31T07:52:30;1.20;;;1.10;;
10281;SDS011;5186;59.472;18.048;2023-03-31T07:54:56;3.93;;;0.80;;
10281;SDS011;5186;59.472;18.048;2023-03-31T07:57:21;1.47;;;1.10;;
10281;SDS011;5186;59.472;18.048;2023-03-31T07:59:47;2.37;;;1.10;;
10281;SDS011;5186;59.472;18.048;2023-03-31T08:02:13;4.53;;;1.30;;
10281;SDS011;5186;59.472;18.048;2023-03-31T08:04:40;1.57;;;1.00;;
10281;SDS011;5186;59.472;18.048;2023-03-31T08:07:06;1.00;;;0.90;;
10281;SDS011;5186;59.472;18.048;2023-03-31T08:09:33;1.10;;;0.87;;
10281;SDS011;5186;59.472;18.048;2023-03-31T08:11:59;1.70;;;0.90;;
10281;SDS011;5186;59.472;18.048;2023-03-31T08:14:24;3.30;;;0.90;;
10281;SDS011;5186;59.472;18.048;2023-03-31T08:16:50;1.83;;;0.80;;
10281;SDS011;5186;59.472;18.048;2023-03-31T08:19:17;2.43;;;1.10;;
10281;SDS011;5186;59.472;18.048;2023-03-31T08:21:42;2.90;;;1.00;;
10281;SDS011;5186;59.472;18.048;2023-03-31T08:24:08;1.80;;;1.03;;
10281;SDS011;5186;59.472;18.048;2023-03-31T08:26:34;1.00;;;0.90;;
10281;SDS011;5186;59.472;18.048;2023-03-31T08:28:59;2.13;;;1.00;;
10281;SDS011;5186;59.472;18.048;2023-03-31T08:31:25;2.03;;;1.00;;
10281;SDS011;5186;59.472;18.048;2023-03-31T08:33:53;1.93;;;0.90;;
10281;SDS011;5186;59.472;18.048;2023-03-31T08:36:19;2.67;;;0.90;;
10281;SDS011;5186;59.472;18.048;2023-03-31T08:38:44;0.83;;;0.73;;
10281;SDS011;5186;59.472;18.048;2023-03-31T08:41:24;1.43;;;1.03;;
10281;SDS011;5186;59.472;18.048;2023-03-31T08:44:15;1.63;;;1.20;;
10281;SDS011;5186;59.472;18.048;2023-03-31T08:46:45;1.00;;;1.00;;
10281;SDS011;5186;59.472;18.048;2023-03-31T08:49:15;0.87;;;0.87;;
10281;SDS011;5186;59.472;18.048;2023-03-31T08:51:46;0.83;;;0.70;;
10281;SDS011;5186;59.472;18.048;2023-03-31T08:56:55;1.40;;;1.00;;
10281;SDS011;5186;59.472;18.048;2023-03-31T08:59:32;1.90;;;1.03;;
10281;SDS011;5186;59.472;18.048;2023-03-31T09:07:26;0.90;;;0.90;;
10281;SDS011;5186;59.472;18.048;2023-03-31T09:09:58;1.73;;;1.07;;
10281;SDS011;5186;59.472;18.048;2023-03-31T09:12:33;1.20;;;1.10;;
10281;SDS011;5186;59.472;18.048;2023-03-31T09:15:13;4.17;;;1.00;;
10281;SDS011;5186;59.472;18.048;2023-03-31T09:18:12;0.97;;;0.93;;
10281;SDS011;5186;59.472;18.048;2023-03-31T09:20:47;1.10;;;0.90;;
10281;SDS011;5186;59.472;18.048;2023-03-31T09:25:51;0.90;;;0.90;;
10281;SDS011;5186;59.472;18.048;2023-03-31T09:28:20;1.40;;;1.00;;
10281;SDS011;5186;59.472;18.048;2023-03-31T09:30:49;1.20;;;1.10;;
10281;SDS011;5186;59.472;18.048;2023-03-31T09:33:24;1.33;;;0.97;;
10281;SDS011;5186;59.472;18.048;2023-03-31T09:36:00;2.40;;;0.90;;
10281;SDS011;5186;59.472;18.048;2023-03-31T09:38:27;2.23;;;1.00;;
10281;SDS011;5186;59.472;18.048;2023-03-31T09:40:56;2.83;;;1.10;;
10281;SDS011;5186;59.472;18.048;2023-03-31T09:43:27;2.70;;;1.00;;
10281;SDS011;5186;59.472;18.048;2023-03-31T09:45:54;1.67;;;1.10;;
10281;SDS011;5186;59.472;18.048;2023-03-31T09:48:22;2.33;;;1.00;;
10281;SDS011;5186;59.472;18.048;2023-03-31T09:53:33;4.20;;;1.00;;
10281;SDS011;5186;59.472;18.048;2023-03-31T09:56:05;1.77;;;0.80;;
10281;SDS011;5186;59.472;18.048;2023-03-31T09:58:38;1.93;;;0.90;;
10281;SDS011;5186;59.472;18.048;2023-03-31T10:01:09;4.80;;;1.17;;
10281;SDS011;5186;59.472;18.048;2023-03-31T10:03:49;0.70;;;0.70;;
10281;SDS011;5186;59.472;18.048;2023-03-31T10:06:17;2.00;;;0.73;;
10281;SDS011;5186;59.472;18.048;2023-03-31T10:08:54;2.77;;;1.00;;
10281;SDS011;5186;59.472;18.048;2023-03-31T10:11:27;1.33;;;0.97;;
10281;SDS011;5186;59.472;18.048;2023-03-31T10:14:04;1.87;;;1.10;;
10281;SDS011;5186;59.472;18.048;2023-03-31T10:19:20;3.73;;;0.90;;
10281;SDS011;5186;59.472;18.048;2023-03-31T10:21:55;3.30;;;0.90;;
10281;SDS011;5186;59.472;18.048;2023-03-31T10:24:22;1.00;;;0.90;;
10281;SDS011;5186;59.472;18.048;2023-03-31T10:26:48;2.00;;;1.03;;
10281;SDS011;5186;59.472;18.048;2023-03-31T10:29:18;2.03;;;1.00;;
10281;SDS011;5186;59.472;18.048;2023-03-31T10:31:49;1.23;;;1.10;;
10281;SDS011;5186;59.472;18.048;2023-03-31T10:34:16;1.20;;;0.70;;
10281;SDS011;5186;59.472;18.048;2023-03-31T10:36:47;2.00;;;0.80;;
10281;SDS011;5186;59.472;18.048;2023-03-31T10:39:15;1.60;;;0.93;;
10281;SDS011;5186;59.472;18.048;2023-03-31T10:41:42;3.00;;;1.20;;
10281;SDS011;5186;59.472;18.048;2023-03-31T10:47:05;2.57;;;1.10;;
10281;SDS011;5186;59.472;18.048;2023-03-31T10:49:43;2.50;;;0.87;;
10281;SDS011;5186;59.472;18.048;2023-03-31T10:52:21;1.00;;;0.90;;
10281;SDS011;5186;59.472;18.048;2023-03-31T10:54:59;2.03;;;0.90;;
10281;SDS011;5186;59.472;18.048;2023-03-31T11:00:10;1.10;;;1.00;;
10281;SDS011;5186;59.472;18.048;2023-03-31T11:05:19;0.87;;;0.87;;
10281;SDS011;5186;59.472;18.048;2023-03-31T11:08:07;2.33;;;1.10;;
10281;SDS011;5186;59.472;18.048;2023-03-31T11:13:36;2.10;;;0.83;;
10281;SDS011;5186;59.472;18.048;2023-03-31T11:16:28;3.27;;;1.20;;
10281;SDS011;5186;59.472;18.048;2023-03-31T11:29:47;0.80;;;0.80;;
10281;SDS011;5186;59.472;18.048;2023-03-31T11:38:17;0.80;;;0.60;;
10281;SDS011;5186;59.472;18.048;2023-03-31T11:40:58;3.37;;;0.90;;
10281;SDS011;5186;59.472;18.048;2023-03-31T12:00:17;1.37;;;0.80;;
10281;SDS011;5186;59.472;18.048;2023-03-31T12:02:47;1.00;;;0.90;;
10281;SDS011;5186;59.472;18.048;2023-03-31T12:05:19;0.60;;;0.60;;
10281;SDS011;5186;59.472;18.048;2023-03-31T12:07:54;2.50;;;0.63;;
10281;SDS011;5186;59.472;18.048;2023-03-31T12:10:45;1.40;;;0.93;;
10281;SDS011;5186;59.472;18.048;2023-03-31T12:16:11;1.33;;;0.70;;
10281;SDS011;5186;59.472;18.048;2023-03-31T12:21:38;3.57;;;0.97;;
10281;SDS011;5186;59.472;18.048;2023-03-31T12:24:09;0.83;;;0.70;;
10281;SDS011;5186;59.472;18.048;2023-03-31T12:29:30;0.77;;;0.70;;
10281;SDS011;5186;59.472;18.048;2023-03-31T12:32:01;1.53;;;0.70;;
10281;SDS011;5186;59.472;18.048;2023-03-31T12:34:31;0.63;;;0.50;;
10281;SDS011;5186;59.472;18.048;2023-03-31T12:44:56;1.40;;;0.90;;
10281;SDS011;5186;59.472;18.048;2023-03-31T12:47:41;1.53;;;0.70;;
10281;SDS011;5186;59.472;18.048;2023-03-31T12:53:21;2.07;;;0.80;;
10281;SDS011;5186;59.472;18.048;2023-03-31T12:55:57;1.10;;;0.70;;
10281;SDS011;5186;59.472;18.048;2023-03-31T13:01:08;1.43;;;0.40;;
10281;SDS011;5186;59.472;18.048;2023-03-31T13:09:05;0.70;;;0.60;;
10281;SDS011;5186;59.472;18.048;2023-03-31T13:11:51;0.60;;;0.60;;
10281;SDS011;5186;59.472;18.048;2023-03-31T13:14:28;0.53;;;0.53;;
10281;SDS011;5186;59.472;18.048;2023-03-31T13:19:50;2.30;;;0.80;;
10281;SDS011;5186;59.472;18.048;2023-03-31T13:22:36;1.33;;;0.53;;
10281;SDS011;5186;59.472;18.048;2023-03-31T13:27:55;0.50;;;0.50;;
10281;SDS011;5186;59.472;18.048;2023-03-31T13:33:03;1.47;;;0.70;;
10281;SDS011;5186;59.472;18.048;2023-03-31T13:35:34;3.00;;;0.60;;
10281;SDS011;5186;59.472;18.048;2023-03-31T13:49:34;1.47;;;0.43;;
10281;SDS011;5186;59.472;18.048;2023-03-31T13:52:15;0.80;;;0.57;;
10281;SDS011;5186;59.472;18.048;2023-03-31T13:57:51;0.40;;;0.40;;
10281;SDS011;5186;59.472;18.048;2023-03-31T14:03:32;1.63;;;0.60;;
10281;SDS011;5186;59.472;18.048;2023-03-31T14:06:25;0.40;;;0.40;;
10281;SDS011;5186;59.472;18.048;2023-03-31T14:09:22;0.50;;;0.40;;
10281;SDS011;5186;59.472;18.048;2023-03-31T14:11:53;0.87;;;0.63;;
10281;SDS011;5186;59.472;18.048;2023-03-31T14:14:20;0.50;;;0.50;;
10281;SDS011;5186;59.472;18.048;2023-03-31T14:16:49;2.00;;;0.50;;
10281;SDS011;5186;59.472;18.048;2023-03-31T14:22:40;1.67;;;0.50;;
10281;SDS011;5186;59.472;18.048;2023-03-31T14:30:12;1.57;;;0.60;;
10281;SDS011;5186;59.472;18.048;2023-03-31T14:38:35;0.80;;;0.70;;
10281;SDS011;5186;59.472;18.048;2023-03-31T14:41:01;1.80;;;0.67;;
10281;SDS011;5186;59.472;18.048;2023-03-31T14:43:28;0.87;;;0.60;;
10281;SDS011;5186;59.472;18.048;2023-03-31T14:46:04;0.90;;;0.63;;
10281;SDS011;5186;59.472;18.048;2023-03-31T14:48:32;1.13;;;0.50;;
10281;SDS011;5186;59.472;18.048;2023-03-31T14:51:07;1.23;;;0.60;;
10281;SDS011;5186;59.472;18.048;2023-03-31T14:53:34;1.80;;;0.57;;
10281;SDS011;5186;59.472;18.048;2023-03-31T14:56:04;0.60;;;0.47;;
10281;SDS011;5186;59.472;18.048;2023-03-31T14:58:34;0.67;;;0.50;;
10281;SDS011;5186;59.472;18.048;2023-03-31T15:01:05;2.10;;;0.60;;
10281;SDS011;5186;59.472;18.048;2023-03-31T15:03:32;0.70;;;0.70;;
10281;SDS011;5186;59.472;18.048;2023-03-31T15:06:01;1.23;;;0.50;;
10281;SDS011;5186;59.472;18.048;2023-03-31T15:08:28;0.83;;;0.60;;
10281;SDS011;5186;59.472;18.048;2023-03-31T15:10:57;0.70;;;0.60;;
10281;SDS011;5186;59.472;18.048;2023-03-31T15:13:38;0.80;;;0.67;;
10281;SDS011;5186;59.472;18.048;2023-03-31T15:21:43;0.43;;;0.33;;
10281;SDS011;5186;59.472;18.048;2023-03-31T15:24:12;0.60;;;0.60;;
10281;SDS011;5186;59.472;18.048;2023-03-31T15:29:44;2.00;;;0.70;;
10281;SDS011;5186;59.472;18.048;2023-03-31T15:32:13;1.17;;;0.60;;
10281;SDS011;5186;59.472;18.048;2023-03-31T15:34:44;0.60;;;0.60;;
10281;SDS011;5186;59.472;18.048;2023-03-31T15:37:10;0.80;;;0.60;;
10281;SDS011;5186;59.472;18.048;2023-03-31T15:39:36;0.87;;;0.50;;
10281;SDS011;5186;59.472;18.048;2023-03-31T15:42:04;0.50;;;0.50;;
10281;SDS011;5186;59.472;18.048;2023-03-31T15:47:20;0.50;;;0.40;;
10281;SDS011;5186;59.472;18.048;2023-03-31T15:50:24;0.70;;;0.70;;
10281;SDS011;5186;59.472;18.048;2023-03-31T15:52:48;2.23;;;0.67;;
10281;SDS011;5186;59.472;18.048;2023-03-31T15:55:24;1.57;;;0.60;;
10281;SDS011;5186;59.472;18.048;2023-03-31T15:57:51;1.13;;;0.43;;
10281;SDS011;5186;59.472;18.048;2023-03-31T16:03:03;0.63;;;0.50;;
10281;SDS011;5186;59.472;18.048;2023-03-31T16:05:40;0.80;;;0.50;;
10281;SDS011;5186;59.472;18.048;2023-03-31T16:08:16;2.37;;;0.60;;
10281;SDS011;5186;59.472;18.048;2023-03-31T16:11:42;0.70;;;0.50;;
10281;SDS011;5186;59.472;18.048;2023-03-31T16:13:46;2.33;;;0.90;;
10281;SDS011;5186;59.472;18.048;2023-03-31T16:16:16;0.90;;;0.50;;
10281;SDS011;5186;59.472;18.048;2023-03-31T16:18:51;0.83;;;0.53;;
10281;SDS011;5186;59.472;18.048;2023-03-31T16:21:24;2.20;;;0.40;;
10281;SDS011;5186;59.472;18.048;2023-03-31T16:23:54;1.03;;;0.60;;
10281;SDS011;5186;59.472;18.048;2023-03-31T16:26:22;0.40;;;0.40;;
10281;SDS011;5186;59.472;18.048;2023-03-31T16:28:50;0.33;;;0.33;;
10281;SDS011;5186;59.472;18.048;2023-03-31T16:31:37;1.57;;;0.63;;
10281;SDS011;5186;59.472;18.048;2023-03-31T16:34:05;1.13;;;0.50;;
10281;SDS011;5186;59.472;18.048;2023-03-31T16:36:33;0.47;;;0.43;;
10281;SDS011;5186;59.472;18.048;2023-03-31T16:38:59;2.23;;;0.60;;
10281;SDS011;5186;59.472;18.048;2023-03-31T16:41:28;0.37;;;0.37;;
10281;SDS011;5186;59.472;18.048;2023-03-31T16:43:57;1.30;;;0.63;;
10281;SDS011;5186;59.472;18.048;2023-03-31T16:46:23;0.90;;;0.60;;
10281;SDS011;5186;59.472;18.048;2023-03-31T16:48:49;0.63;;;0.63;;
10281;SDS011;5186;59.472;18.048;2023-03-31T16:51:15;0.77;;;0.50;;
10281;SDS011;5186;59.472;18.048;2023-03-31T16:53:41;1.33;;;0.47;;
10281;SDS011;5186;59.472;18.048;2023-03-31T16:56:07;1.27;;;0.60;;
10281;SDS011;5186;59.472;18.048;2023-03-31T16:58:36;1.17;;;0.60;;
10281;SDS011;5186;59.472;18.048;2023-03-31T17:01:03;0.67;;;0.50;;
10281;SDS011;5186;59.472;18.048;2023-03-31T17:03:30;2.00;;;0.70;;
10281;SDS011;5186;59.472;18.048;2023-03-31T17:05:56;0.67;;;0.50;;
10281;SDS011;5186;59.472;18.048;2023-03-31T17:08:23;0.70;;;0.50;;
10281;SDS011;5186;59.472;18.048;2023-03-31T17:10:52;0.50;;;0.50;;
10281;SDS011;5186;59.472;18.048;2023-03-31T17:13:20;1.03;;;0.50;;
10281;SDS011;5186;59.472;18.048;2023-03-31T17:15:46;0.50;;;0.50;;
10281;SDS011;5186;59.472;18.048;2023-03-31T17:18:12;0.60;;;0.60;;
10281;SDS011;5186;59.472;18.048;2023-03-31T17:20:39;2.57;;;0.50;;
10281;SDS011;5186;59.472;18.048;2023-03-31T17:23:05;0.73;;;0.50;;
10281;SDS011;5186;59.472;18.048;2023-03-31T17:25:31;0.88;;;0.50;;
10281;SDS011;5186;59.472;18.048;2023-03-31T17:27:58;1.90;;;0.50;;
10281;SDS011;5186;59.472;18.048;2023-03-31T17:30:25;1.33;;;0.50;;
10281;SDS011;5186;59.472;18.048;2023-03-31T17:32:51;0.47;;;0.47;;
10281;SDS011;5186;59.472;18.048;2023-03-31T17:35:17;1.90;;;0.60;;
10281;SDS011;5186;59.472;18.048;2023-03-31T17:37:45;1.13;;;0.50;;
10281;SDS011;5186;59.472;18.048;2023-03-31T17:40:17;1.10;;;0.70;;
10281;SDS011;5186;59.472;18.048;2023-03-31T17:42:47;1.30;;;0.77;;
10281;SDS011;5186;59.472;18.048;2023-03-31T17:45:12;0.97;;;0.70;;
10281;SDS011;5186;59.472;18.048;2023-03-31T17:47:38;1.57;;;0.60;;
10281;SDS011;5186;59.472;18.048;2023-03-31T17:50:05;2.70;;;0.70;;
10281;SDS011;5186;59.472;18.048;2023-03-31T17:52:32;1.00;;;0.90;;
10281;SDS011;5186;59.472;18.048;2023-03-31T17:54:59;1.93;;;0.80;;
10281;SDS011;5186;59.472;18.048;2023-03-31T17:57:25;2.40;;;0.70;;
10281;SDS011;5186;59.472;18.048;2023-03-31T17:59:51;5.57;;;0.80;;
10281;SDS011;5186;59.472;18.048;2023-03-31T18:02:16;1.90;;;0.73;;
10281;SDS011;5186;59.472;18.048;2023-03-31T18:04:43;4.20;;;0.80;;
10281;SDS011;5186;59.472;18.048;2023-03-31T18:07:08;2.03;;;0.80;;
10281;SDS011;5186;59.472;18.048;2023-03-31T18:09:34;3.13;;;1.33;;
10281;SDS011;5186;59.472;18.048;2023-03-31T18:12:00;1.03;;;0.70;;
10281;SDS011;5186;59.472;18.048;2023-03-31T18:14:26;3.10;;;0.87;;
10281;SDS011;5186;59.472;18.048;2023-03-31T18:16:52;3.27;;;1.07;;